AAR601 RKSI-YSSY
Flight info
| Callsign | AAR601 |
|---|---|
| Flight time | N/A |
| Altitude | 33000 |
| Route | OSPOT2H OSPOT Y782 TGU/N0481F350 Y781 BESNA Y209 IKE A582 HKC Y14 TGE G339 PAKDO/N0481F370 DCT 15N139E 1000N14030E DCT KEONE R204 KALIN/N0478F390 R204 HID DCT ONARA DCT DOLIB Y173 UBGAN Y161 OVNOM H652 BOREE |
| Aircraft | B772/H-SDE1E2E3FGHIJ3J5M1P2RWXYZ/LB1D1 |
Departure
| Time | 2026-05-07 02:04 |
|---|---|
| Airport | Incheon International Airport (RKSI) |
Arrival
| Time | N/A |
|---|---|
| Airport | Sydney Kingsford Smith International Airport (YSSY) |
| Time | Latitude | Longitude | Altitude | Speed | Heading |
|---|---|---|---|---|---|
| 2026-05-07 01:27 | 37.46720 | 126.44199 | 36 ft | 0 kts | 234° |
| 2026-05-07 01:47 | 37.46726 | 126.44210 | 35 ft | 3 kts | 234° |
| 2026-05-07 01:47 | 37.46738 | 126.44231 | 34 ft | 3 kts | 234° |
| 2026-05-07 01:47 | 37.46749 | 126.44250 | 34 ft | 2 kts | 234° |
| 2026-05-07 01:48 | 37.46758 | 126.44267 | 35 ft | 3 kts | 253° |
| 2026-05-07 01:48 | 37.46759 | 126.44287 | 33 ft | 3 kts | 304° |
| 2026-05-07 01:48 | 37.46745 | 126.44304 | 33 ft | 3 kts | 326° |
| 2026-05-07 01:48 | 37.46734 | 126.44313 | 36 ft | 1 kts | 324° |
| 2026-05-07 01:49 | 37.46732 | 126.44315 | 35 ft | 0 kts | 324° |
| 2026-05-07 01:55 | 37.46763 | 126.44288 | 36 ft | 13 kts | 324° |
| 2026-05-07 01:56 | 37.46831 | 126.44212 | 36 ft | 13 kts | 313° |
| 2026-05-07 01:56 | 37.46894 | 126.44128 | 36 ft | 13 kts | 313° |
| 2026-05-07 01:56 | 37.46971 | 126.44104 | 36 ft | 13 kts | 33° |
| 2026-05-07 01:56 | 37.47035 | 126.44186 | 35 ft | 13 kts | 31° |
| 2026-05-07 01:57 | 37.47117 | 126.44156 | 34 ft | 13 kts | 324° |
| 2026-05-07 01:57 | 37.47192 | 126.44089 | 36 ft | 13 kts | 325° |
| 2026-05-07 01:57 | 37.47264 | 126.44026 | 36 ft | 13 kts | 324° |
| 2026-05-07 01:57 | 37.47341 | 126.43957 | 36 ft | 13 kts | 324° |
| 2026-05-07 01:58 | 37.47415 | 126.43892 | 36 ft | 13 kts | 324° |
| 2026-05-07 01:58 | 37.47490 | 126.43825 | 34 ft | 13 kts | 324° |
| 2026-05-07 01:58 | 37.47565 | 126.43759 | 36 ft | 13 kts | 324° |
| 2026-05-07 01:58 | 37.47640 | 126.43692 | 36 ft | 13 kts | 324° |
| 2026-05-07 01:59 | 37.47714 | 126.43627 | 36 ft | 13 kts | 324° |
| 2026-05-07 01:59 | 37.47789 | 126.43560 | 36 ft | 13 kts | 324° |
| 2026-05-07 01:59 | 37.47863 | 126.43494 | 36 ft | 13 kts | 324° |
| 2026-05-07 01:59 | 37.47938 | 126.43427 | 36 ft | 13 kts | 324° |
| 2026-05-07 02:00 | 37.48020 | 126.43408 | 36 ft | 13 kts | 38° |
| 2026-05-07 02:00 | 37.48075 | 126.43500 | 36 ft | 13 kts | 54° |
| 2026-05-07 02:00 | 37.48128 | 126.43594 | 36 ft | 13 kts | 54° |
| 2026-05-07 02:00 | 37.48181 | 126.43689 | 37 ft | 13 kts | 54° |
| 2026-05-07 02:01 | 37.48234 | 126.43783 | 33 ft | 13 kts | 55° |
| 2026-05-07 02:01 | 37.48287 | 126.43872 | 36 ft | 11 kts | 53° |
| 2026-05-07 02:01 | 37.48306 | 126.43907 | 36 ft | 0 kts | 54° |
| 2026-05-07 02:03 | 37.48312 | 126.43918 | 35 ft | 9 kts | 54° |
| 2026-05-07 02:03 | 37.48349 | 126.44018 | 34 ft | 13 kts | 89° |
| 2026-05-07 02:03 | 37.48303 | 126.44096 | 35 ft | 4 kts | 144° |
| 2026-05-07 02:03 | 37.48302 | 126.44096 | 35 ft | 0 kts | 144° |
| 2026-05-07 02:04 | 37.48232 | 126.44160 | 36 ft | 46 kts | 144° |
| 2026-05-07 02:04 | 37.47732 | 126.44607 | 36 ft | 129 kts | 143° |
| 2026-05-07 02:04 | 37.46824 | 126.45397 | 316 ft | 171 kts | 146° |
| 2026-05-07 02:04 | 37.45832 | 126.46285 | 1168 ft | 184 kts | 150° |
| 2026-05-07 02:05 | 37.44795 | 126.47333 | 2033 ft | 197 kts | 144° |
| 2026-05-07 02:05 | 37.43834 | 126.48582 | 2948 ft | 207 kts | 139° |
| 2026-05-07 02:05 | 37.42825 | 126.50003 | 3268 ft | 225 kts | 138° |
| 2026-05-07 02:05 | 37.41757 | 126.51544 | 3505 ft | 244 kts | 134° |
| 2026-05-07 02:06 | 37.40683 | 126.53248 | 3741 ft | 265 kts | 134° |
| 2026-05-07 02:06 | 37.39457 | 126.55124 | 4258 ft | 274 kts | 135° |
| 2026-05-07 02:06 | 37.38228 | 126.56950 | 4933 ft | 277 kts | 136° |
| 2026-05-07 02:06 | 37.36905 | 126.58644 | 5508 ft | 272 kts | 153° |
| 2026-05-07 02:07 | 37.35150 | 126.59499 | 6023 ft | 265 kts | 171° |
| 2026-05-07 02:07 | 37.31619 | 126.60922 | 7347 ft | 271 kts | 167° |
| 2026-05-07 02:07 | 37.29846 | 126.61706 | 8004 ft | 274 kts | 163° |
| 2026-05-07 02:08 | 37.28214 | 126.63043 | 8456 ft | 293 kts | 138° |
| 2026-05-07 02:08 | 37.26930 | 126.65076 | 9004 ft | 299 kts | 132° |
| 2026-05-07 02:08 | 37.25677 | 126.67146 | 9629 ft | 302 kts | 133° |
| 2026-05-07 02:08 | 37.24380 | 126.69273 | 10240 ft | 307 kts | 133° |
| 2026-05-07 02:09 | 37.23038 | 126.71464 | 10455 ft | 327 kts | 133° |
| 2026-05-07 02:09 | 37.21621 | 126.73771 | 10610 ft | 348 kts | 133° |
| 2026-05-07 02:09 | 37.20086 | 126.76268 | 10785 ft | 369 kts | 132° |
| 2026-05-07 02:09 | 37.18505 | 126.78848 | 11235 ft | 381 kts | 132° |
| 2026-05-07 02:10 | 37.16862 | 126.81530 | 11826 ft | 389 kts | 132° |
| 2026-05-07 02:10 | 37.15219 | 126.84210 | 12486 ft | 395 kts | 133° |
| 2026-05-07 02:10 | 37.13513 | 126.86987 | 13186 ft | 401 kts | 133° |
| 2026-05-07 02:10 | 37.11800 | 126.89772 | 13874 ft | 406 kts | 133° |
| 2026-05-07 02:11 | 37.10083 | 126.92558 | 14477 ft | 410 kts | 133° |
| 2026-05-07 02:11 | 37.08320 | 126.95416 | 15133 ft | 413 kts | 133° |
| 2026-05-07 02:11 | 37.06549 | 126.98286 | 15842 ft | 415 kts | 133° |
| 2026-05-07 02:11 | 37.04794 | 127.01125 | 16448 ft | 418 kts | 134° |
| 2026-05-07 02:12 | 37.03005 | 127.04014 | 17064 ft | 422 kts | 134° |
| 2026-05-07 02:12 | 37.01189 | 127.06945 | 17633 ft | 427 kts | 134° |
| 2026-05-07 02:12 | 36.99355 | 127.09901 | 18225 ft | 431 kts | 134° |
| 2026-05-07 02:12 | 36.97526 | 127.12849 | 18733 ft | 434 kts | 134° |
| 2026-05-07 02:13 | 36.95667 | 127.15842 | 19210 ft | 439 kts | 134° |
| 2026-05-07 02:13 | 36.93778 | 127.18880 | 19679 ft | 443 kts | 134° |
| 2026-05-07 02:13 | 36.91886 | 127.21923 | 20152 ft | 447 kts | 134° |
| 2026-05-07 02:13 | 36.89971 | 127.25000 | 20610 ft | 450 kts | 134° |
| 2026-05-07 02:14 | 36.88039 | 127.28103 | 21085 ft | 454 kts | 134° |
| 2026-05-07 02:14 | 36.86115 | 127.31187 | 21580 ft | 457 kts | 134° |
| 2026-05-07 02:14 | 36.84145 | 127.34319 | 22101 ft | 458 kts | 136° |
| 2026-05-07 02:14 | 36.82005 | 127.37254 | 22542 ft | 456 kts | 142° |
| 2026-05-07 02:15 | 36.79689 | 127.40026 | 22972 ft | 460 kts | 143° |
| 2026-05-07 02:15 | 36.77392 | 127.42776 | 23424 ft | 464 kts | 143° |
| 2026-05-07 02:15 | 36.75042 | 127.45627 | 23831 ft | 468 kts | 142° |
| 2026-05-07 02:15 | 36.72732 | 127.48454 | 24170 ft | 470 kts | 142° |
| 2026-05-07 02:16 | 36.70396 | 127.51318 | 24682 ft | 471 kts | 142° |
| 2026-05-07 02:16 | 36.68039 | 127.54204 | 25115 ft | 473 kts | 142° |
| 2026-05-07 02:16 | 36.65690 | 127.57073 | 25474 ft | 476 kts | 142° |
| 2026-05-07 02:16 | 36.63310 | 127.59977 | 25805 ft | 480 kts | 142° |
| 2026-05-07 02:17 | 36.60915 | 127.62898 | 26150 ft | 483 kts | 142° |
| 2026-05-07 02:17 | 36.58531 | 127.65805 | 26529 ft | 485 kts | 142° |
| 2026-05-07 02:17 | 36.56119 | 127.68745 | 26914 ft | 487 kts | 142° |
| 2026-05-07 02:17 | 36.53699 | 127.71693 | 27265 ft | 489 kts | 142° |
| 2026-05-07 02:18 | 36.51263 | 127.74655 | 27616 ft | 491 kts | 142° |
| 2026-05-07 02:18 | 36.48799 | 127.77648 | 27935 ft | 494 kts | 142° |
| 2026-05-07 02:18 | 36.46341 | 127.80633 | 28254 ft | 496 kts | 142° |
| 2026-05-07 02:18 | 36.43867 | 127.83633 | 28556 ft | 499 kts | 142° |
| 2026-05-07 02:19 | 36.41368 | 127.86667 | 28852 ft | 501 kts | 142° |
| 2026-05-07 02:19 | 36.38899 | 127.89665 | 29164 ft | 503 kts | 142° |
| 2026-05-07 02:19 | 36.36398 | 127.92702 | 29456 ft | 504 kts | 142° |
| 2026-05-07 02:19 | 36.33888 | 127.95746 | 29708 ft | 506 kts | 141° |
| 2026-05-07 02:20 | 36.31353 | 127.98818 | 29956 ft | 508 kts | 141° |
| 2026-05-07 02:20 | 36.28806 | 128.01901 | 30195 ft | 510 kts | 141° |
| 2026-05-07 02:20 | 36.26294 | 128.04937 | 30422 ft | 511 kts | 141° |
| 2026-05-07 02:20 | 36.23731 | 128.08021 | 30596 ft | 513 kts | 141° |
| 2026-05-07 02:21 | 36.21169 | 128.11103 | 30810 ft | 514 kts | 141° |
| 2026-05-07 02:21 | 36.18609 | 128.14181 | 31016 ft | 515 kts | 141° |
| 2026-05-07 02:21 | 36.16049 | 128.17257 | 31207 ft | 516 kts | 141° |
| 2026-05-07 02:21 | 36.13446 | 128.20382 | 31394 ft | 516 kts | 141° |
| 2026-05-07 02:22 | 36.10892 | 128.23445 | 31651 ft | 515 kts | 141° |